sensor_id;sensor_type;location;lat;lon;timestamp;temperature;humidity
62007;DHT22;47963;53.008;6.754;2022-08-11T00:01:14;19.90;99.90
62007;DHT22;47963;53.008;6.754;2022-08-11T00:03:46;19.80;99.90
62007;DHT22;47963;53.008;6.754;2022-08-11T00:06:15;19.80;99.90
62007;DHT22;47963;53.008;6.754;2022-08-11T00:08:49;19.80;99.90
62007;DHT22;47963;53.008;6.754;2022-08-11T00:11:16;19.80;99.90
62007;DHT22;47963;53.008;6.754;2022-08-11T00:13:44;19.70;99.90
62007;DHT22;47963;53.008;6.754;2022-08-11T00:16:22;19.70;99.90
62007;DHT22;47963;53.008;6.754;2022-08-11T00:18:55;19.70;99.90
62007;DHT22;47963;53.008;6.754;2022-08-11T00:21:25;19.70;99.90
62007;DHT22;47963;53.008;6.754;2022-08-11T00:23:57;19.60;99.90
62007;DHT22;47963;53.008;6.754;2022-08-11T00:26:24;19.50;99.90
62007;DHT22;47963;53.008;6.754;2022-08-11T00:28:50;19.50;99.90
62007;DHT22;47963;53.008;6.754;2022-08-11T00:31:28;19.50;99.90
62007;DHT22;47963;53.008;6.754;2022-08-11T00:36:26;19.50;99.90
62007;DHT22;47963;53.008;6.754;2022-08-11T00:38:53;19.50;99.90
62007;DHT22;47963;53.008;6.754;2022-08-11T00:44:54;19.40;99.90
62007;DHT22;47963;53.008;6.754;2022-08-11T00:50:03;19.40;99.90
62007;DHT22;47963;53.008;6.754;2022-08-11T00:53:01;19.30;99.90
62007;DHT22;47963;53.008;6.754;2022-08-11T00:58:29;19.20;99.90
62007;DHT22;47963;53.008;6.754;2022-08-11T01:04:15;19.20;99.90
62007;DHT22;47963;53.008;6.754;2022-08-11T01:10:05;19.20;99.90
62007;DHT22;47963;53.008;6.754;2022-08-11T01:13:14;19.20;99.90
62007;DHT22;47963;53.008;6.754;2022-08-11T01:32:46;18.90;99.90
62007;DHT22;47963;53.008;6.754;2022-08-11T01:56:13;18.70;99.90
62007;DHT22;47963;53.008;6.754;2022-08-11T02:02:26;18.70;99.90
62007;DHT22;47963;53.008;6.754;2022-08-11T02:14:11;18.60;99.90
62007;DHT22;47963;53.008;6.754;2022-08-11T02:16:47;18.50;99.90
62007;DHT22;47963;53.008;6.754;2022-08-11T02:22:22;18.50;99.90
62007;DHT22;47963;53.008;6.754;2022-08-11T02:25:22;18.50;99.90
62007;DHT22;47963;53.008;6.754;2022-08-11T02:34:08;18.30;99.90
62007;DHT22;47963;53.008;6.754;2022-08-11T02:36:51;18.30;99.90
62007;DHT22;47963;53.008;6.754;2022-08-11T02:39:19;18.30;99.90
62007;DHT22;47963;53.008;6.754;2022-08-11T02:42:06;18.20;99.90
62007;DHT22;47963;53.008;6.754;2022-08-11T02:45:31;18.20;99.90
62007;DHT22;47963;53.008;6.754;2022-08-11T02:54:25;18.10;99.90
62007;DHT22;47963;53.008;6.754;2022-08-11T03:07:31;18.00;99.90
62007;DHT22;47963;53.008;6.754;2022-08-11T03:10:22;18.00;99.90
62007;DHT22;47963;53.008;6.754;2022-08-11T03:13:15;18.00;99.90
62007;DHT22;47963;53.008;6.754;2022-08-11T03:22:16;18.00;99.90
62007;DHT22;47963;53.008;6.754;2022-08-11T03:30:34;17.90;99.90
62007;DHT22;47963;53.008;6.754;2022-08-11T03:33:33;17.90;99.90
62007;DHT22;47963;53.008;6.754;2022-08-11T03:39:19;17.80;99.90
62007;DHT22;47963;53.008;6.754;2022-08-11T03:42:26;17.70;99.90
62007;DHT22;47963;53.008;6.754;2022-08-11T04:04:57;17.60;99.90
62007;DHT22;47963;53.008;6.754;2022-08-11T04:10:31;17.50;99.90
62007;DHT22;47963;53.008;6.754;2022-08-11T04:13:09;17.50;99.90
62007;DHT22;47963;53.008;6.754;2022-08-11T04:16:00;17.50;99.90
62007;DHT22;47963;53.008;6.754;2022-08-11T04:30:00;17.40;99.90
62007;DHT22;47963;53.008;6.754;2022-08-11T04:35:24;17.40;99.90
62007;DHT22;47963;53.008;6.754;2022-08-11T04:40:53;17.40;99.90
62007;DHT22;47963;53.008;6.754;2022-08-11T04:52:06;17.40;99.90
62007;DHT22;47963;53.008;6.754;2022-08-11T04:55:16;17.40;99.90
62007;DHT22;47963;53.008;6.754;2022-08-11T05:04:26;17.40;99.90
62007;DHT22;47963;53.008;6.754;2022-08-11T05:10:20;17.40;99.90
62007;DHT22;47963;53.008;6.754;2022-08-11T05:15:34;17.50;99.90
62007;DHT22;47963;53.008;6.754;2022-08-11T05:18:22;17.60;99.90
62007;DHT22;47963;53.008;6.754;2022-08-11T05:21:09;17.60;99.90
62007;DHT22;47963;53.008;6.754;2022-08-11T05:24:12;17.70;99.90
62007;DHT22;47963;53.008;6.754;2022-08-11T05:27:02;17.60;99.90
62007;DHT22;47963;53.008;6.754;2022-08-11T05:30:00;17.70;99.90
62007;DHT22;47963;53.008;6.754;2022-08-11T05:32:46;17.70;99.90
62007;DHT22;47963;53.008;6.754;2022-08-11T05:35:44;17.70;99.90
62007;DHT22;47963;53.008;6.754;2022-08-11T05:38:27;17.80;99.90
62007;DHT22;47963;53.008;6.754;2022-08-11T05:41:13;17.80;99.90
62007;DHT22;47963;53.008;6.754;2022-08-11T05:43:59;17.80;99.90
62007;DHT22;47963;53.008;6.754;2022-08-11T05:46:44;17.80;99.90
62007;DHT22;47963;53.008;6.754;2022-08-11T05:49:31;17.90;99.90
62007;DHT22;47963;53.008;6.754;2022-08-11T05:52:24;17.90;99.90
62007;DHT22;47963;53.008;6.754;2022-08-11T05:55:09;17.90;99.90
62007;DHT22;47963;53.008;6.754;2022-08-11T05:57:56;17.90;99.90
62007;DHT22;47963;53.008;6.754;2022-08-11T06:00:23;18.00;99.90
62007;DHT22;47963;53.008;6.754;2022-08-11T06:02:52;18.00;99.90
62007;DHT22;47963;53.008;6.754;2022-08-11T06:05:20;18.00;99.90
62007;DHT22;47963;53.008;6.754;2022-08-11T06:07:53;18.10;99.90
62007;DHT22;47963;53.008;6.754;2022-08-11T06:10:31;18.10;99.90
62007;DHT22;47963;53.008;6.754;2022-08-11T06:12:58;18.10;99.90
62007;DHT22;47963;53.008;6.754;2022-08-11T06:15:26;18.10;99.90
62007;DHT22;47963;53.008;6.754;2022-08-11T06:17:54;18.20;99.90
62007;DHT22;47963;53.008;6.754;2022-08-11T06:20:20;18.30;99.90
62007;DHT22;47963;53.008;6.754;2022-08-11T06:22:54;18.40;99.90
62007;DHT22;47963;53.008;6.754;2022-08-11T06:25:20;18.40;99.90
62007;DHT22;47963;53.008;6.754;2022-08-11T06:27:53;18.50;99.90
62007;DHT22;47963;53.008;6.754;2022-08-11T06:30:32;18.50;99.90
62007;DHT22;47963;53.008;6.754;2022-08-11T06:33:00;18.60;99.90
62007;DHT22;47963;53.008;6.754;2022-08-11T06:35:50;18.60;99.90
62007;DHT22;47963;53.008;6.754;2022-08-11T06:41:22;18.80;99.90
62007;DHT22;47963;53.008;6.754;2022-08-11T06:46:40;18.90;99.90
62007;DHT22;47963;53.008;6.754;2022-08-11T06:49:09;18.90;99.90
62007;DHT22;47963;53.008;6.754;2022-08-11T06:51:58;19.00;99.90
62007;DHT22;47963;53.008;6.754;2022-08-11T06:54:28;19.00;99.90
62007;DHT22;47963;53.008;6.754;2022-08-11T06:56:55;19.10;99.90
62007;DHT22;47963;53.008;6.754;2022-08-11T06:59:40;19.20;99.90
62007;DHT22;47963;53.008;6.754;2022-08-11T07:02:33;19.30;99.90
62007;DHT22;47963;53.008;6.754;2022-08-11T07:05:07;19.40;99.90
62007;DHT22;47963;53.008;6.754;2022-08-11T07:13:51;19.60;99.90
62007;DHT22;47963;53.008;6.754;2022-08-11T07:16:40;19.70;99.90
62007;DHT22;47963;53.008;6.754;2022-08-11T07:19:07;19.80;99.90
62007;DHT22;47963;53.008;6.754;2022-08-11T07:21:55;19.90;99.90
62007;DHT22;47963;53.008;6.754;2022-08-11T07:24:53;20.00;99.90
62007;DHT22;47963;53.008;6.754;2022-08-11T07:27:43;20.10;99.90
62007;DHT22;47963;53.008;6.754;2022-08-11T07:30:30;20.20;99.90
62007;DHT22;47963;53.008;6.754;2022-08-11T07:32:59;20.30;99.90
62007;DHT22;47963;53.008;6.754;2022-08-11T07:35:31;20.40;99.90
62007;DHT22;47963;53.008;6.754;2022-08-11T07:38:01;20.50;99.90
62007;DHT22;47963;53.008;6.754;2022-08-11T07:40:28;20.60;99.90
62007;DHT22;47963;53.008;6.754;2022-08-11T07:42:55;20.70;99.90
62007;DHT22;47963;53.008;6.754;2022-08-11T07:45:23;20.80;99.90
62007;DHT22;47963;53.008;6.754;2022-08-11T07:48:08;20.90;99.90
62007;DHT22;47963;53.008;6.754;2022-08-11T07:50:54;21.00;99.90
62007;DHT22;47963;53.008;6.754;2022-08-11T07:53:39;21.10;99.90
62007;DHT22;47963;53.008;6.754;2022-08-11T07:56:05;21.20;99.90
62007;DHT22;47963;53.008;6.754;2022-08-11T07:58:34;21.30;99.90
62007;DHT22;47963;53.008;6.754;2022-08-11T08:01:22;21.40;99.90
62007;DHT22;47963;53.008;6.754;2022-08-11T08:04:08;21.50;99.90
62007;DHT22;47963;53.008;6.754;2022-08-11T08:06:54;21.60;99.90
62007;DHT22;47963;53.008;6.754;2022-08-11T08:09:39;21.70;99.90
62007;DHT22;47963;53.008;6.754;2022-08-11T08:12:25;21.90;99.90
62007;DHT22;47963;53.008;6.754;2022-08-11T08:15:10;22.00;99.90
62007;DHT22;47963;53.008;6.754;2022-08-11T08:17:57;22.20;99.90
62007;DHT22;47963;53.008;6.754;2022-08-11T08:20:30;22.20;99.90
62007;DHT22;47963;53.008;6.754;2022-08-11T08:22:58;22.40;99.90
62007;DHT22;47963;53.008;6.754;2022-08-11T08:25:29;22.50;99.90
62007;DHT22;47963;53.008;6.754;2022-08-11T08:27:56;22.60;99.90
62007;DHT22;47963;53.008;6.754;2022-08-11T08:30:24;22.70;99.90
62007;DHT22;47963;53.008;6.754;2022-08-11T08:33:15;22.90;99.90
62007;DHT22;47963;53.008;6.754;2022-08-11T08:35:41;23.00;99.90
62007;DHT22;47963;53.008;6.754;2022-08-11T08:38:10;23.10;99.90
62007;DHT22;47963;53.008;6.754;2022-08-11T08:40:40;23.20;99.90
62007;DHT22;47963;53.008;6.754;2022-08-11T08:43:08;23.30;99.90
62007;DHT22;47963;53.008;6.754;2022-08-11T08:45:37;23.50;99.90
62007;DHT22;47963;53.008;6.754;2022-08-11T08:48:10;23.60;99.90
62007;DHT22;47963;53.008;6.754;2022-08-11T08:50:37;23.70;99.90
62007;DHT22;47963;53.008;6.754;2022-08-11T08:53:25;23.80;99.90
62007;DHT22;47963;53.008;6.754;2022-08-11T08:55:55;24.00;99.90
62007;DHT22;47963;53.008;6.754;2022-08-11T08:58:23;24.10;99.90
62007;DHT22;47963;53.008;6.754;2022-08-11T09:00:50;24.20;99.90
62007;DHT22;47963;53.008;6.754;2022-08-11T09:03:17;24.20;99.90
62007;DHT22;47963;53.008;6.754;2022-08-11T09:05:45;24.30;99.90
62007;DHT22;47963;53.008;6.754;2022-08-11T09:08:11;24.40;99.90
62007;DHT22;47963;53.008;6.754;2022-08-11T09:10:38;24.40;99.90
62007;DHT22;47963;53.008;6.754;2022-08-11T09:13:05;24.50;99.90
62007;DHT22;47963;53.008;6.754;2022-08-11T09:15:32;24.70;99.90
62007;DHT22;47963;53.008;6.754;2022-08-11T09:18:00;24.80;99.90
62007;DHT22;47963;53.008;6.754;2022-08-11T09:20:37;24.90;99.90
62007;DHT22;47963;53.008;6.754;2022-08-11T09:23:06;24.90;99.90
62007;DHT22;47963;53.008;6.754;2022-08-11T09:25:54;25.10;99.90
62007;DHT22;47963;53.008;6.754;2022-08-11T09:28:41;25.20;99.90
62007;DHT22;47963;53.008;6.754;2022-08-11T09:31:07;25.30;99.90
62007;DHT22;47963;53.008;6.754;2022-08-11T09:33:35;25.40;99.90
62007;DHT22;47963;53.008;6.754;2022-08-11T09:36:01;25.50;99.90
62007;DHT22;47963;53.008;6.754;2022-08-11T09:38:49;25.60;99.90
62007;DHT22;47963;53.008;6.754;2022-08-11T09:41:34;25.80;99.90
62007;DHT22;47963;53.008;6.754;2022-08-11T09:44:00;25.80;99.90
62007;DHT22;47963;53.008;6.754;2022-08-11T09:46:45;26.00;99.90
62007;DHT22;47963;53.008;6.754;2022-08-11T09:49:11;26.00;99.90
62007;DHT22;47963;53.008;6.754;2022-08-11T09:51:37;26.10;99.90
62007;DHT22;47963;53.008;6.754;2022-08-11T09:54:04;26.20;99.90
62007;DHT22;47963;53.008;6.754;2022-08-11T09:56:33;26.20;99.90
62007;DHT22;47963;53.008;6.754;2022-08-11T09:59:20;26.40;99.90
62007;DHT22;47963;53.008;6.754;2022-08-11T10:01:53;26.50;99.90
62007;DHT22;47963;53.008;6.754;2022-08-11T10:04:59;26.60;99.90
62007;DHT22;47963;53.008;6.754;2022-08-11T10:07:19;26.70;99.90
62007;DHT22;47963;53.008;6.754;2022-08-11T10:12:28;26.70;99.90
62007;DHT22;47963;53.008;6.754;2022-08-11T10:15:01;26.90;99.90
62007;DHT22;47963;53.008;6.754;2022-08-11T10:17:48;26.90;99.90
62007;DHT22;47963;53.008;6.754;2022-08-11T10:20:37;27.10;99.90
62007;DHT22;47963;53.008;6.754;2022-08-11T10:23:04;27.10;99.90
62007;DHT22;47963;53.008;6.754;2022-08-11T10:25:49;27.20;99.90
62007;DHT22;47963;53.008;6.754;2022-08-11T10:28:34;27.30;99.90
62007;DHT22;47963;53.008;6.754;2022-08-11T10:31:03;27.30;99.90
62007;DHT22;47963;53.008;6.754;2022-08-11T10:33:48;27.40;99.90
62007;DHT22;47963;53.008;6.754;2022-08-11T10:38:57;27.60;99.90
62007;DHT22;47963;53.008;6.754;2022-08-11T10:41:25;27.60;99.90
62007;DHT22;47963;53.008;6.754;2022-08-11T10:44:10;27.70;99.90
62007;DHT22;47963;53.008;6.754;2022-08-11T10:46:37;27.80;99.90
62007;DHT22;47963;53.008;6.754;2022-08-11T10:49:22;27.80;99.90
62007;DHT22;47963;53.008;6.754;2022-08-11T10:51:48;28.00;99.90
62007;DHT22;47963;53.008;6.754;2022-08-11T10:54:33;28.10;99.90
62007;DHT22;47963;53.008;6.754;2022-08-11T10:57:18;28.20;99.90
62007;DHT22;47963;53.008;6.754;2022-08-11T11:00:05;28.20;99.90
62007;DHT22;47963;53.008;6.754;2022-08-11T11:02:32;28.40;99.90
62007;DHT22;47963;53.008;6.754;2022-08-11T11:07:56;28.50;99.90
62007;DHT22;47963;53.008;6.754;2022-08-11T11:10:27;28.30;99.90
62007;DHT22;47963;53.008;6.754;2022-08-11T11:12:55;28.40;99.90
62007;DHT22;47963;53.008;6.754;2022-08-11T11:15:45;28.40;99.90
62007;DHT22;47963;53.008;6.754;2022-08-11T11:18:36;28.40;99.90
62007;DHT22;47963;53.008;6.754;2022-08-11T11:21:08;28.50;99.90
62007;DHT22;47963;53.008;6.754;2022-08-11T11:27:01;28.50;99.90
62007;DHT22;47963;53.008;6.754;2022-08-11T11:29:38;28.60;99.90
62007;DHT22;47963;53.008;6.754;2022-08-11T11:37:31;28.90;99.90
62007;DHT22;47963;53.008;6.754;2022-08-11T11:39:58;29.00;99.90
62007;DHT22;47963;53.008;6.754;2022-08-11T11:42:25;29.10;99.90
62007;DHT22;47963;53.008;6.754;2022-08-11T11:44:50;29.10;99.90
62007;DHT22;47963;53.008;6.754;2022-08-11T11:47:17;29.20;99.90
62007;DHT22;47963;53.008;6.754;2022-08-11T11:49:45;29.30;99.90
62007;DHT22;47963;53.008;6.754;2022-08-11T11:52:14;29.30;99.90
62007;DHT22;47963;53.008;6.754;2022-08-11T11:54:43;29.30;99.90
62007;DHT22;47963;53.008;6.754;2022-08-11T11:57:10;29.30;99.90
62007;DHT22;47963;53.008;6.754;2022-08-11T12:00:10;29.30;99.90
62007;DHT22;47963;53.008;6.754;2022-08-11T12:02:57;29.30;99.90
62007;DHT22;47963;53.008;6.754;2022-08-11T12:05:25;29.50;99.90
62007;DHT22;47963;53.008;6.754;2022-08-11T12:07:53;29.60;99.90
62007;DHT22;47963;53.008;6.754;2022-08-11T12:10:51;29.70;99.90
62007;DHT22;47963;53.008;6.754;2022-08-11T12:13:42;29.70;99.90
62007;DHT22;47963;53.008;6.754;2022-08-11T12:16:11;29.70;99.90
62007;DHT22;47963;53.008;6.754;2022-08-11T12:18:39;29.80;99.90
62007;DHT22;47963;53.008;6.754;2022-08-11T12:21:07;29.80;99.90
62007;DHT22;47963;53.008;6.754;2022-08-11T12:23:36;29.80;99.90
62007;DHT22;47963;53.008;6.754;2022-08-11T12:26:21;29.80;99.90
62007;DHT22;47963;53.008;6.754;2022-08-11T12:29:08;29.80;99.90
62007;DHT22;47963;53.008;6.754;2022-08-11T12:31:36;29.90;99.90
62007;DHT22;47963;53.008;6.754;2022-08-11T12:34:07;29.90;99.90
62007;DHT22;47963;53.008;6.754;2022-08-11T12:36:38;30.00;99.90
62007;DHT22;47963;53.008;6.754;2022-08-11T12:39:19;30.00;99.90
62007;DHT22;47963;53.008;6.754;2022-08-11T12:41:45;30.00;99.90
62007;DHT22;47963;53.008;6.754;2022-08-11T12:44:30;30.00;99.90
62007;DHT22;47963;53.008;6.754;2022-08-11T12:47:18;29.90;99.90
62007;DHT22;47963;53.008;6.754;2022-08-11T12:49:47;29.90;99.90
62007;DHT22;47963;53.008;6.754;2022-08-11T12:52:36;30.10;99.90
62007;DHT22;47963;53.008;6.754;2022-08-11T12:55:15;30.30;99.90
62007;DHT22;47963;53.008;6.754;2022-08-11T12:58:00;30.40;99.90
62007;DHT22;47963;53.008;6.754;2022-08-11T13:00:45;30.40;99.90
62007;DHT22;47963;53.008;6.754;2022-08-11T13:03:31;30.40;99.90
62007;DHT22;47963;53.008;6.754;2022-08-11T13:06:18;30.50;99.90
62007;DHT22;47963;53.008;6.754;2022-08-11T13:08:45;30.60;99.90
62007;DHT22;47963;53.008;6.754;2022-08-11T13:11:12;30.60;99.90
62007;DHT22;47963;53.008;6.754;2022-08-11T13:13:58;30.80;99.90
62007;DHT22;47963;53.008;6.754;2022-08-11T13:16:28;30.70;99.90
62007;DHT22;47963;53.008;6.754;2022-08-11T13:18:57;30.70;99.90
62007;DHT22;47963;53.008;6.754;2022-08-11T13:21:25;30.70;99.90
62007;DHT22;47963;53.008;6.754;2022-08-11T13:23:53;30.90;99.90
62007;DHT22;47963;53.008;6.754;2022-08-11T13:26:21;30.90;99.90
62007;DHT22;47963;53.008;6.754;2022-08-11T13:28:47;31.10;99.90
62007;DHT22;47963;53.008;6.754;2022-08-11T13:31:12;31.00;99.90
62007;DHT22;47963;53.008;6.754;2022-08-11T13:33:46;31.10;99.90
62007;DHT22;47963;53.008;6.754;2022-08-11T13:36:18;31.30;99.90
62007;DHT22;47963;53.008;6.754;2022-08-11T13:38:45;31.20;99.90
62007;DHT22;47963;53.008;6.754;2022-08-11T13:41:12;31.10;99.90
62007;DHT22;47963;53.008;6.754;2022-08-11T13:43:57;31.20;99.90
62007;DHT22;47963;53.008;6.754;2022-08-11T13:46:26;31.20;99.90
62007;DHT22;47963;53.008;6.754;2022-08-11T13:48:55;31.20;99.90
62007;DHT22;47963;53.008;6.754;2022-08-11T13:51:23;31.10;99.90
62007;DHT22;47963;53.008;6.754;2022-08-11T13:53:59;31.20;99.90
62007;DHT22;47963;53.008;6.754;2022-08-11T13:56:26;31.40;99.90
62007;DHT22;47963;53.008;6.754;2022-08-11T13:58:53;31.40;99.90
62007;DHT22;47963;53.008;6.754;2022-08-11T14:01:20;31.40;99.90
62007;DHT22;47963;53.008;6.754;2022-08-11T14:03:47;31.50;99.90
62007;DHT22;47963;53.008;6.754;2022-08-11T14:06:14;31.50;99.90
62007;DHT22;47963;53.008;6.754;2022-08-11T14:08:42;31.60;99.90
62007;DHT22;47963;53.008;6.754;2022-08-11T14:11:08;31.80;99.90
62007;DHT22;47963;53.008;6.754;2022-08-11T14:13:54;31.80;99.90
62007;DHT22;47963;53.008;6.754;2022-08-11T14:16:27;31.70;99.90
62007;DHT22;47963;53.008;6.754;2022-08-11T14:18:59;31.80;99.90
62007;DHT22;47963;53.008;6.754;2022-08-11T14:21:26;31.80;99.90
62007;DHT22;47963;53.008;6.754;2022-08-11T14:24:12;31.90;99.90
62007;DHT22;47963;53.008;6.754;2022-08-11T14:26:39;32.10;99.90
62007;DHT22;47963;53.008;6.754;2022-08-11T14:29:15;32.00;99.90
62007;DHT22;47963;53.008;6.754;2022-08-11T14:31:51;31.90;99.90
62007;DHT22;47963;53.008;6.754;2022-08-11T14:34:19;31.90;99.90
62007;DHT22;47963;53.008;6.754;2022-08-11T14:36:51;32.00;99.90
62007;DHT22;47963;53.008;6.754;2022-08-11T14:39:21;32.00;99.90
62007;DHT22;47963;53.008;6.754;2022-08-11T14:41:59;32.10;99.90
62007;DHT22;47963;53.008;6.754;2022-08-11T14:44:48;32.10;99.90
62007;DHT22;47963;53.008;6.754;2022-08-11T14:47:35;32.40;99.90
62007;DHT22;47963;53.008;6.754;2022-08-11T14:50:03;32.40;99.90
62007;DHT22;47963;53.008;6.754;2022-08-11T14:52:31;32.40;99.90
62007;DHT22;47963;53.008;6.754;2022-08-11T14:55:00;32.30;99.90
62007;DHT22;47963;53.008;6.754;2022-08-11T14:57:45;32.50;99.90
62007;DHT22;47963;53.008;6.754;2022-08-11T15:00:13;32.40;99.90
62007;DHT22;47963;53.008;6.754;2022-08-11T15:02:40;32.60;99.90
62007;DHT22;47963;53.008;6.754;2022-08-11T15:07:53;32.70;99.90
62007;DHT22;47963;53.008;6.754;2022-08-11T15:10:19;32.70;99.90
62007;DHT22;47963;53.008;6.754;2022-08-11T15:12:45;32.70;99.90
62007;DHT22;47963;53.008;6.754;2022-08-11T15:15:12;32.50;99.90
62007;DHT22;47963;53.008;6.754;2022-08-11T15:17:59;32.60;99.90
62007;DHT22;47963;53.008;6.754;2022-08-11T15:20:27;32.50;99.90
62007;DHT22;47963;53.008;6.754;2022-08-11T15:23:12;32.30;99.90
62007;DHT22;47963;53.008;6.754;2022-08-11T15:28:33;31.80;99.90
62007;DHT22;47963;53.008;6.754;2022-08-11T15:31:20;31.50;99.90
62007;DHT22;47963;53.008;6.754;2022-08-11T15:33:52;31.20;99.90
62007;DHT22;47963;53.008;6.754;2022-08-11T15:36:38;31.10;99.90
62007;DHT22;47963;53.008;6.754;2022-08-11T15:39:36;31.00;99.90
62007;DHT22;47963;53.008;6.754;2022-08-11T15:42:22;30.40;99.90
62007;DHT22;47963;53.008;6.754;2022-08-11T15:45:08;30.30;99.90
62007;DHT22;47963;53.008;6.754;2022-08-11T15:48:02;30.30;99.90
62007;DHT22;47963;53.008;6.754;2022-08-11T15:50:32;30.30;99.90
62007;DHT22;47963;53.008;6.754;2022-08-11T15:53:02;30.10;99.90
62007;DHT22;47963;53.008;6.754;2022-08-11T15:55:30;30.00;99.90
62007;DHT22;47963;53.008;6.754;2022-08-11T15:58:02;29.80;99.90
62007;DHT22;47963;53.008;6.754;2022-08-11T16:00:48;29.80;99.90
62007;DHT22;47963;53.008;6.754;2022-08-11T16:03:40;29.80;99.90
62007;DHT22;47963;53.008;6.754;2022-08-11T16:06:25;29.70;99.90
62007;DHT22;47963;53.008;6.754;2022-08-11T16:08:52;29.60;99.90
62007;DHT22;47963;53.008;6.754;2022-08-11T16:11:21;29.30;99.90
62007;DHT22;47963;53.008;6.754;2022-08-11T16:13:47;29.60;99.90
62007;DHT22;47963;53.008;6.754;2022-08-11T16:16:32;30.60;99.90
62007;DHT22;47963;53.008;6.754;2022-08-11T16:19:00;30.20;99.90
62007;DHT22;47963;53.008;6.754;2022-08-11T16:21:32;30.20;99.90
62007;DHT22;47963;53.008;6.754;2022-08-11T16:24:00;30.10;99.90
62007;DHT22;47963;53.008;6.754;2022-08-11T16:26:28;31.40;99.90
62007;DHT22;47963;53.008;6.754;2022-08-11T16:28:56;31.10;99.90
62007;DHT22;47963;53.008;6.754;2022-08-11T16:31:23;31.00;99.90
62007;DHT22;47963;53.008;6.754;2022-08-11T16:33:51;31.50;99.90
62007;DHT22;47963;53.008;6.754;2022-08-11T16:36:23;31.40;99.90
62007;DHT22;47963;53.008;6.754;2022-08-11T16:39:08;30.80;99.90
62007;DHT22;47963;53.008;6.754;2022-08-11T16:41:35;30.50;99.90
62007;DHT22;47963;53.008;6.754;2022-08-11T16:44:22;30.40;99.90
62007;DHT22;47963;53.008;6.754;2022-08-11T16:47:10;30.20;99.90
62007;DHT22;47963;53.008;6.754;2022-08-11T16:49:51;30.00;99.90
62007;DHT22;47963;53.008;6.754;2022-08-11T16:52:17;29.90;99.90
62007;DHT22;47963;53.008;6.754;2022-08-11T16:54:43;29.90;99.90
62007;DHT22;47963;53.008;6.754;2022-08-11T16:57:23;29.80;99.90
62007;DHT22;47963;53.008;6.754;2022-08-11T17:00:11;29.60;99.90
62007;DHT22;47963;53.008;6.754;2022-08-11T17:02:50;29.60;99.90
62007;DHT22;47963;53.008;6.754;2022-08-11T17:05:36;29.60;99.90
62007;DHT22;47963;53.008;6.754;2022-08-11T17:08:28;29.50;99.90
62007;DHT22;47963;53.008;6.754;2022-08-11T17:11:13;29.40;99.90
62007;DHT22;47963;53.008;6.754;2022-08-11T17:14:00;29.30;99.90
62007;DHT22;47963;53.008;6.754;2022-08-11T17:16:35;29.30;99.90
62007;DHT22;47963;53.008;6.754;2022-08-11T17:19:07;29.30;99.90
62007;DHT22;47963;53.008;6.754;2022-08-11T17:21:43;29.20;99.90
62007;DHT22;47963;53.008;6.754;2022-08-11T17:24:34;29.00;99.90
62007;DHT22;47963;53.008;6.754;2022-08-11T17:27:02;29.00;99.90
62007;DHT22;47963;53.008;6.754;2022-08-11T17:29:46;28.90;99.90
62007;DHT22;47963;53.008;6.754;2022-08-11T17:32:15;28.90;99.90
62007;DHT22;47963;53.008;6.754;2022-08-11T17:35:09;28.90;99.90
62007;DHT22;47963;53.008;6.754;2022-08-11T17:38:11;28.70;99.90
62007;DHT22;47963;53.008;6.754;2022-08-11T17:40:51;28.80;99.90
62007;DHT22;47963;53.008;6.754;2022-08-11T17:43:35;28.90;99.90
62007;DHT22;47963;53.008;6.754;2022-08-11T17:46:20;29.30;99.90
62007;DHT22;47963;53.008;6.754;2022-08-11T17:49:06;29.90;99.90
62007;DHT22;47963;53.008;6.754;2022-08-11T17:51:33;30.80;99.90
62007;DHT22;47963;53.008;6.754;2022-08-11T17:54:18;32.00;99.90
62007;DHT22;47963;53.008;6.754;2022-08-11T17:57:05;32.90;99.90
62007;DHT22;47963;53.008;6.754;2022-08-11T17:59:50;33.80;99.90
62007;DHT22;47963;53.008;6.754;2022-08-11T18:02:33;34.70;99.90
62007;DHT22;47963;53.008;6.754;2022-08-11T18:05:38;35.00;99.90
62007;DHT22;47963;53.008;6.754;2022-08-11T18:08:09;35.30;99.90
62007;DHT22;47963;53.008;6.754;2022-08-11T18:10:55;35.40;99.90
62007;DHT22;47963;53.008;6.754;2022-08-11T18:13:41;35.40;99.90
62007;DHT22;47963;53.008;6.754;2022-08-11T18:16:26;35.00;99.90
62007;DHT22;47963;53.008;6.754;2022-08-11T18:19:11;33.60;99.90
62007;DHT22;47963;53.008;6.754;2022-08-11T18:22:02;32.60;99.90
62007;DHT22;47963;53.008;6.754;2022-08-11T18:24:54;31.80;99.90
62007;DHT22;47963;53.008;6.754;2022-08-11T18:27:43;31.00;99.90
62007;DHT22;47963;53.008;6.754;2022-08-11T18:30:33;30.30;99.90
62007;DHT22;47963;53.008;6.754;2022-08-11T18:33:19;29.80;99.90
62007;DHT22;47963;53.008;6.754;2022-08-11T18:36:09;29.60;99.90
62007;DHT22;47963;53.008;6.754;2022-08-11T18:38:56;29.20;99.90
62007;DHT22;47963;53.008;6.754;2022-08-11T18:41:42;28.90;99.90
62007;DHT22;47963;53.008;6.754;2022-08-11T18:44:29;28.60;99.90
62007;DHT22;47963;53.008;6.754;2022-08-11T18:47:15;28.50;99.90
62007;DHT22;47963;53.008;6.754;2022-08-11T18:50:02;28.30;99.90
62007;DHT22;47963;53.008;6.754;2022-08-11T18:52:50;28.10;99.90
62007;DHT22;47963;53.008;6.754;2022-08-11T18:55:35;27.90;99.90
62007;DHT22;47963;53.008;6.754;2022-08-11T18:58:27;27.70;99.90
62007;DHT22;47963;53.008;6.754;2022-08-11T19:01:13;27.60;99.90
62007;DHT22;47963;53.008;6.754;2022-08-11T19:03:59;27.60;99.90
62007;DHT22;47963;53.008;6.754;2022-08-11T19:06:47;27.40;99.90
62007;DHT22;47963;53.008;6.754;2022-08-11T19:09:34;27.40;99.90
62007;DHT22;47963;53.008;6.754;2022-08-11T19:12:20;27.20;99.90
62007;DHT22;47963;53.008;6.754;2022-08-11T19:15:07;27.10;99.90
62007;DHT22;47963;53.008;6.754;2022-08-11T19:17:53;27.00;99.90
62007;DHT22;47963;53.008;6.754;2022-08-11T19:20:41;26.90;99.90
62007;DHT22;47963;53.008;6.754;2022-08-11T19:23:34;26.80;99.90
62007;DHT22;47963;53.008;6.754;2022-08-11T19:26:19;26.70;99.90
62007;DHT22;47963;53.008;6.754;2022-08-11T19:29:06;26.60;99.90
62007;DHT22;47963;53.008;6.754;2022-08-11T19:31:53;26.60;99.90
62007;DHT22;47963;53.008;6.754;2022-08-11T19:34:38;26.40;99.90
62007;DHT22;47963;53.008;6.754;2022-08-11T19:37:24;26.30;99.90
62007;DHT22;47963;53.008;6.754;2022-08-11T19:40:10;26.20;99.90
62007;DHT22;47963;53.008;6.754;2022-08-11T19:42:56;26.20;99.90
62007;DHT22;47963;53.008;6.754;2022-08-11T19:45:42;26.10;99.90
62007;DHT22;47963;53.008;6.754;2022-08-11T19:48:28;26.10;99.90
62007;DHT22;47963;53.008;6.754;2022-08-11T19:51:15;26.00;99.90
62007;DHT22;47963;53.008;6.754;2022-08-11T19:54:00;25.90;99.90
62007;DHT22;47963;53.008;6.754;2022-08-11T19:56:46;25.80;99.90
62007;DHT22;47963;53.008;6.754;2022-08-11T19:59:32;25.70;99.90
62007;DHT22;47963;53.008;6.754;2022-08-11T20:02:17;25.60;99.90